createdAt,value
2023-02-25T00:01:41.674Z,98690.00
2023-02-25T00:04:09.513Z,98690.13
2023-02-25T00:06:36.045Z,98684.91
2023-02-25T00:09:02.646Z,98690.47
2023-02-25T00:11:30.271Z,98673.63
2023-02-25T00:13:57.543Z,98669.53
2023-02-25T00:16:25.544Z,98662.56
2023-02-25T00:18:57.366Z,98653.00
2023-02-25T00:21:24.966Z,98649.50
2023-02-25T00:23:53.614Z,98645.88
2023-02-25T00:26:21.056Z,98651.69
2023-02-25T00:28:48.469Z,98650.53
2023-02-25T00:31:21.371Z,98647.22
2023-02-25T00:33:49.167Z,98637.88
2023-02-25T00:36:21.253Z,98640.41
2023-02-25T00:38:49.463Z,98637.09
2023-02-25T00:41:18.311Z,98638.63
2023-02-25T00:43:51.063Z,98636.16
2023-02-25T00:46:17.909Z,98631.91
2023-02-25T00:48:44.574Z,98630.13
2023-02-25T00:51:20.355Z,98628.72
2023-02-25T00:53:47.190Z,98626.84
2023-02-25T00:56:15.943Z,98619.00
2023-02-25T00:58:45.092Z,98617.47
2023-02-25T01:01:24.868Z,98610.50
2023-02-25T01:03:53.504Z,98615.50
2023-02-25T01:06:20.730Z,98607.47
2023-02-25T01:08:47.597Z,98601.75
2023-02-25T01:11:27.787Z,98595.09
2023-02-25T01:13:55.969Z,98587.38
2023-02-25T01:16:26.441Z,98579.75
2023-02-25T01:18:58.152Z,98569.63
2023-02-25T01:21:30.547Z,98574.00
2023-02-25T01:24:00.630Z,98568.84
2023-02-25T01:26:29.217Z,98564.19
2023-02-25T01:28:56.439Z,98565.78
2023-02-25T01:31:25.074Z,98563.84
2023-02-25T01:33:51.761Z,98551.91
2023-02-25T01:36:18.317Z,98563.53
2023-02-25T01:38:44.854Z,98553.88
2023-02-25T01:41:11.430Z,98555.97
2023-02-25T01:43:37.956Z,98532.72
2023-02-25T01:46:04.540Z,98540.94
2023-02-25T01:48:35.449Z,98544.72
2023-02-25T01:51:06.881Z,98546.44
2023-02-25T01:53:37.293Z,98548.97
2023-02-25T01:56:04.860Z,98547.13
2023-02-25T01:58:33.641Z,98540.56
2023-02-25T02:01:00.977Z,98531.19
2023-02-25T02:03:32.512Z,98524.28
2023-02-25T02:06:13.401Z,98524.69
2023-02-25T02:08:42.329Z,98512.47
2023-02-25T02:11:09.032Z,98513.31
2023-02-25T02:13:39.227Z,98515.63
2023-02-25T02:16:21.410Z,98504.00
2023-02-25T02:18:54.173Z,98494.34
2023-02-25T02:22:00.558Z,98486.84
2023-02-25T02:24:51.249Z,98483.31
2023-02-25T02:27:26.355Z,98475.56
2023-02-25T02:30:26.301Z,98484.22
2023-02-25T02:33:14.169Z,98491.81
2023-02-25T02:35:41.089Z,98486.31
2023-02-25T02:38:19.891Z,98486.84
2023-02-25T02:40:58.413Z,98486.03
2023-02-25T02:43:46.859Z,98480.19
2023-02-25T02:46:26.490Z,98480.84
2023-02-25T02:49:01.619Z,98483.31
2023-02-25T02:52:03.721Z,98494.13
2023-02-25T02:54:35.739Z,98489.06
2023-02-25T02:57:03.554Z,98487.03
2023-02-25T02:59:38.638Z,98494.72
2023-02-25T03:02:17.630Z,98486.97
2023-02-25T03:04:48.725Z,98486.97
2023-02-25T03:07:18.009Z,98477.53
2023-02-25T03:09:51.881Z,98476.13
2023-02-25T03:12:18.656Z,98466.34
2023-02-25T03:14:45.554Z,98467.09
2023-02-25T03:17:27.704Z,98458.47
2023-02-25T03:20:08.121Z,98466.63
2023-02-25T03:22:39.382Z,98464.09
2023-02-25T03:25:09.980Z,98465.28
2023-02-25T03:27:43.316Z,98458.63
2023-02-25T03:30:18.437Z,98463.81
2023-02-25T03:32:55.047Z,98471.97
2023-02-25T03:35:24.189Z,98459.78
2023-02-25T03:37:56.256Z,98461.63
2023-02-25T03:40:24.199Z,98460.50
2023-02-25T03:42:57.369Z,98446.22
2023-02-25T03:45:24.861Z,98445.84
2023-02-25T03:47:51.951Z,98440.63
2023-02-25T03:50:25.971Z,98444.63
2023-02-25T03:52:52.655Z,98433.25
2023-02-25T03:55:20.048Z,98430.47
2023-02-25T03:57:49.517Z,98434.78
2023-02-25T04:00:19.297Z,98442.84
2023-02-25T04:02:47.478Z,98433.47
2023-02-25T04:05:16.107Z,98433.97
2023-02-25T04:07:42.835Z,98431.50
2023-02-25T04:10:12.655Z,98438.81
2023-02-25T04:12:40.388Z,98444.44
2023-02-25T04:15:07.902Z,98442.59
2023-02-25T04:17:35.535Z,98441.47
2023-02-25T04:20:02.465Z,98438.16
2023-02-25T04:22:29.022Z,98433.16
2023-02-25T04:24:55.561Z,98432.50
2023-02-25T04:27:22.095Z,98430.63
2023-02-25T04:29:48.635Z,98430.63
2023-02-25T04:32:15.383Z,98436.47
2023-02-25T04:34:42.029Z,98430.56
2023-02-25T04:37:10.010Z,98423.91
2023-02-25T04:39:37.309Z,98424.25
2023-02-25T04:42:04.075Z,98431.84
2023-02-25T04:44:31.097Z,98444.53
2023-02-25T04:46:57.666Z,98457.88
2023-02-25T04:49:24.504Z,98465.69
2023-02-25T04:51:51.744Z,98464.59
2023-02-25T04:54:20.184Z,98468.00
2023-02-25T04:56:47.357Z,98475.66
2023-02-25T04:59:14.614Z,98474.81
2023-02-25T05:01:41.491Z,98480.16
2023-02-25T05:04:08.652Z,98472.53
2023-02-25T05:06:35.235Z,98468.03
2023-02-25T05:09:02.232Z,98469.06
2023-02-25T05:11:30.751Z,98463.50
2023-02-25T05:13:57.419Z,98460.50
2023-02-25T05:16:25.267Z,98458.91
2023-02-25T05:18:53.148Z,98451.53
2023-02-25T05:21:22.796Z,98444.09
2023-02-25T05:23:51.690Z,98440.00
2023-02-25T05:26:23.258Z,98440.81
2023-02-25T05:28:55.375Z,98433.03
2023-02-25T05:31:23.591Z,98429.13
2023-02-25T05:33:50.524Z,98430.25
2023-02-25T05:36:17.586Z,98421.63
2023-02-25T05:38:45.144Z,98414.16
2023-02-25T05:41:12.453Z,98417.94
2023-02-25T05:43:39.885Z,98410.47
2023-02-25T05:46:11.790Z,98411.63
2023-02-25T05:48:43.067Z,98411.81
2023-02-25T05:51:18.787Z,98410.38
2023-02-25T05:53:48.039Z,98408.91
2023-02-25T05:56:17.642Z,98398.94
2023-02-25T05:58:44.433Z,98402.09
2023-02-25T06:01:13.917Z,98397.00
2023-02-25T06:03:45.894Z,98409.34
2023-02-25T06:06:13.668Z,98402.63
2023-02-25T06:08:41.942Z,98400.69
2023-02-25T06:11:09.040Z,98402.22
2023-02-25T06:13:35.663Z,98389.22
2023-02-25T06:16:05.938Z,98390.53
2023-02-25T06:18:36.772Z,98387.41
2023-02-25T06:21:05.556Z,98395.75
2023-02-25T06:23:33.025Z,98395.22
2023-02-25T06:25:59.665Z,98395.03
2023-02-25T06:28:26.322Z,98402.50
2023-02-25T06:30:52.909Z,98403.88
2023-02-25T06:33:19.421Z,98405.59
2023-02-25T06:35:46.096Z,98416.47
2023-02-25T06:38:12.659Z,98427.13
2023-02-25T06:40:39.214Z,98431.75
2023-02-25T06:43:05.897Z,98443.09
2023-02-25T06:45:32.493Z,98444.34
2023-02-25T06:47:59.056Z,98444.50
2023-02-25T06:50:25.545Z,98448.03
2023-02-25T06:52:52.106Z,98464.25
2023-02-25T06:55:19.458Z,98461.56
2023-02-25T06:57:46.072Z,98456.94
2023-02-25T07:00:13.077Z,98462.03
2023-02-25T07:02:40.096Z,98463.44
2023-02-25T07:05:06.951Z,98457.16
2023-02-25T07:07:33.513Z,98454.47
2023-02-25T07:10:00.205Z,98454.09
2023-02-25T07:12:26.726Z,98468.78
2023-02-25T07:14:53.325Z,98457.81
2023-02-25T07:17:20.411Z,98464.59
2023-02-25T07:19:46.916Z,98462.72
2023-02-25T07:22:16.480Z,98472.00
2023-02-25T07:24:43.963Z,98471.09
2023-02-25T07:27:13.027Z,98468.13
2023-02-25T07:29:40.373Z,98471.75
2023-02-25T07:32:09.195Z,98463.75
2023-02-25T07:34:37.916Z,98463.44
2023-02-25T07:37:04.451Z,98455.66
2023-02-25T07:39:31.021Z,98455.78
2023-02-25T07:41:57.563Z,98458.63
2023-02-25T07:44:24.148Z,98459.84
2023-02-25T07:46:50.760Z,98458.25
2023-02-25T07:49:17.260Z,98465.25
2023-02-25T07:51:43.789Z,98454.25
2023-02-25T07:54:10.361Z,98453.00
2023-02-25T07:56:36.934Z,98441.78
2023-02-25T07:59:03.507Z,98437.34
2023-02-25T08:01:33.176Z,98430.28
2023-02-25T08:04:04.234Z,98414.13
2023-02-25T08:06:32.094Z,98418.38
2023-02-25T08:08:58.674Z,98407.28
2023-02-25T08:11:26.928Z,98403.56
2023-02-25T08:13:53.892Z,98403.41
2023-02-25T08:16:21.554Z,98397.34
2023-02-25T08:18:48.414Z,98402.97
2023-02-25T08:21:18.143Z,98401.38
2023-02-25T08:23:45.156Z,98404.88
2023-02-25T08:26:11.785Z,98417.50
2023-02-25T08:28:39.684Z,98426.22
2023-02-25T08:31:11.382Z,98424.00
2023-02-25T08:33:40.624Z,98416.59
2023-02-25T08:36:28.461Z,98411.63
2023-02-25T08:38:57.450Z,98415.09
2023-02-25T08:41:26.330Z,98416.38
2023-02-25T08:43:55.354Z,98417.63
2023-02-25T08:46:24.188Z,98408.19
2023-02-25T08:48:52.472Z,98404.09
2023-02-25T08:51:20.818Z,98404.81
2023-02-25T08:53:47.595Z,98412.28
2023-02-25T08:56:16.507Z,98426.28
2023-02-25T08:58:44.031Z,98427.84
2023-02-25T09:01:13.865Z,98428.91
2023-02-25T09:03:51.322Z,98426.63
2023-02-25T09:06:25.535Z,98428.69
2023-02-25T09:08:52.654Z,98433.75
2023-02-25T09:11:20.394Z,98440.72
2023-02-25T09:13:47.234Z,98448.31
2023-02-25T09:16:17.572Z,98448.38
2023-02-25T09:18:48.679Z,98460.31
2023-02-25T09:21:15.372Z,98464.78
2023-02-25T09:23:42.372Z,98466.09
2023-02-25T09:26:09.076Z,98491.19
2023-02-25T09:28:36.484Z,98481.03
2023-02-25T09:31:03.087Z,98501.06
2023-02-25T09:33:31.900Z,98522.81
2023-02-25T09:36:28.349Z,98537.81
2023-02-25T09:38:58.333Z,98562.69
2023-02-25T09:41:32.189Z,98563.84
2023-02-25T09:44:05.920Z,98572.78
2023-02-25T09:46:34.868Z,98597.69
2023-02-25T09:49:31.717Z,98603.16
2023-02-25T09:52:07.798Z,98595.00
2023-02-25T09:54:40.889Z,98601.59
2023-02-25T09:57:10.436Z,98615.91
2023-02-25T09:59:37.359Z,98641.28
2023-02-25T10:02:17.249Z,98643.88
2023-02-25T10:04:55.374Z,98640.78
2023-02-25T10:07:27.252Z,98640.75
2023-02-25T10:10:02.838Z,98636.41
2023-02-25T10:12:46.250Z,98643.50
2023-02-25T10:15:52.359Z,98676.47
2023-02-25T10:18:38.421Z,98696.78
2023-02-25T10:21:50.028Z,98691.91
2023-02-25T10:24:29.346Z,98701.09
2023-02-25T10:27:03.380Z,98714.03
2023-02-25T10:29:42.296Z,98721.13
2023-02-25T10:32:22.517Z,98730.44
2023-02-25T10:34:52.012Z,98734.16
2023-02-25T10:37:36.062Z,98741.28
2023-02-25T10:40:05.380Z,98733.19
2023-02-25T10:42:32.002Z,98740.50
2023-02-25T10:45:08.212Z,98740.69
2023-02-25T10:47:37.696Z,98743.22
2023-02-25T10:50:42.880Z,98748.34
2023-02-25T10:53:20.592Z,98762.47
2023-02-25T10:55:52.800Z,98748.53
2023-02-25T10:58:36.629Z,98764.47
2023-02-25T11:01:19.848Z,98757.69
2023-02-25T11:03:49.112Z,98762.44
2023-02-25T11:06:24.267Z,98767.09
2023-02-25T11:08:52.913Z,98772.69
2023-02-25T11:11:29.691Z,98768.56
2023-02-25T11:14:13.241Z,98763.66
2023-02-25T11:16:42.402Z,98749.00
2023-02-25T11:19:27.812Z,98727.50
2023-02-25T11:21:55.037Z,98725.91
2023-02-25T11:24:36.932Z,98714.94
2023-02-25T11:27:06.952Z,98711.41
2023-02-25T11:29:39.845Z,98713.13
2023-02-25T11:32:17.363Z,98707.22
2023-02-25T11:34:51.995Z,98705.22
2023-02-25T11:37:39.739Z,98709.31
2023-02-25T11:40:20.491Z,98709.94
2023-02-25T11:43:13.801Z,98723.72
2023-02-25T11:45:49.501Z,98734.75
2023-02-25T11:48:29.751Z,98745.16
2023-02-25T11:51:18.419Z,98759.91
2023-02-25T11:54:12.660Z,98764.44
2023-02-25T11:56:50.961Z,98761.72
2023-02-25T11:59:37.235Z,98766.56
2023-02-25T12:02:27.370Z,98758.84
2023-02-25T12:05:03.391Z,98758.44
2023-02-25T12:08:05.102Z,98760.06
2023-02-25T12:11:13.911Z,98754.81
2023-02-25T12:14:08.746Z,98749.06
2023-02-25T12:16:47.477Z,98742.34
2023-02-25T12:19:25.909Z,98751.91
2023-02-25T12:22:14.854Z,98745.38
2023-02-25T12:25:12.287Z,98745.97
2023-02-25T12:27:57.035Z,98738.63
2023-02-25T12:30:42.523Z,98734.41
2023-02-25T12:33:23.873Z,98723.72
2023-02-25T12:36:11.832Z,98720.25
2023-02-25T12:38:57.229Z,98720.53
2023-02-25T12:41:40.554Z,98720.53
2023-02-25T12:44:25.998Z,98715.25
2023-02-25T12:47:10.661Z,98713.03
2023-02-25T12:49:37.179Z,98707.91
2023-02-25T12:52:09.805Z,98697.81
2023-02-25T12:54:36.322Z,98701.41
2023-02-25T12:57:24.793Z,98689.69
2023-02-25T13:00:11.642Z,98686.50
2023-02-25T13:02:50.517Z,98686.88
2023-02-25T13:05:37.962Z,98680.91
2023-02-25T13:08:13.937Z,98680.31
2023-02-25T13:11:17.724Z,98674.78
2023-02-25T13:14:03.586Z,98671.84
2023-02-25T13:16:42.770Z,98670.53
2023-02-25T13:19:21.065Z,98673.84
2023-02-25T13:22:09.801Z,98668.88
2023-02-25T13:25:19.890Z,98659.78
2023-02-25T13:27:58.575Z,98671.72
2023-02-25T13:30:25.523Z,98664.66
2023-02-25T13:33:11.295Z,98664.84
2023-02-25T13:35:56.099Z,98662.09
2023-02-25T13:38:28.829Z,98659.31
2023-02-25T13:41:26.325Z,98661.59
2023-02-25T13:44:11.363Z,98658.03
2023-02-25T13:46:44.009Z,98660.84
2023-02-25T13:49:31.718Z,98660.72
2023-02-25T13:52:07.461Z,98659.97
2023-02-25T13:54:42.365Z,98656.19
2023-02-25T13:57:17.935Z,98657.88
2023-02-25T14:00:04.343Z,98650.78
2023-02-25T14:03:08.011Z,98645.53
2023-02-25T14:05:59.493Z,98649.59
2023-02-25T14:09:02.499Z,98654.19
2023-02-25T14:11:55.654Z,98657.94
2023-02-25T14:14:30.415Z,98658.94
2023-02-25T14:17:22.938Z,98660.59
2023-02-25T14:20:34.118Z,98656.25
2023-02-25T14:23:23.535Z,98642.09
2023-02-25T14:26:12.498Z,98639.63
2023-02-25T14:29:06.630Z,98637.78
2023-02-25T14:31:46.890Z,98650.38
2023-02-25T14:34:31.295Z,98647.88
2023-02-25T14:37:19.395Z,98646.84
2023-02-25T14:40:02.099Z,98646.59
2023-02-25T14:42:46.822Z,98643.66
2023-02-25T14:45:13.545Z,98643.28
2023-02-25T14:48:00.054Z,98653.19
2023-02-25T14:50:31.530Z,98650.06
2023-02-25T14:53:33.535Z,98640.94
2023-02-25T14:56:47.530Z,98639.88
2023-02-25T14:59:32.414Z,98650.97
2023-02-25T15:02:17.690Z,98659.84
2023-02-25T15:05:08.527Z,98655.28
2023-02-25T15:07:42.621Z,98649.97
2023-02-25T15:10:18.048Z,98665.09
2023-02-25T15:13:16.734Z,98665.28
2023-02-25T15:16:20.933Z,98665.63
2023-02-25T15:19:26.177Z,98661.97
2023-02-25T15:22:18.571Z,98662.00
2023-02-25T15:24:46.828Z,98663.19
2023-02-25T15:27:38.200Z,98659.72
2023-02-25T15:30:13.111Z,98663.66
2023-02-25T15:33:08.256Z,98662.88
2023-02-25T15:35:34.798Z,98666.06
2023-02-25T15:38:02.320Z,98670.44
2023-02-25T15:40:32.010Z,98670.34
2023-02-25T15:43:10.508Z,98673.06
2023-02-25T15:45:38.702Z,98675.66
2023-02-25T15:48:08.110Z,98678.44
2023-02-25T15:50:43.992Z,98682.03
2023-02-25T15:53:24.765Z,98679.81
2023-02-25T15:55:53.490Z,98685.41
2023-02-25T15:58:23.227Z,98686.22
2023-02-25T16:00:54.073Z,98692.03
2023-02-25T16:03:34.725Z,98694.22
2023-02-25T16:06:32.289Z,98695.91
2023-02-25T16:09:12.108Z,98697.78
2023-02-25T16:11:51.514Z,98711.78
2023-02-25T16:14:24.609Z,98709.34
2023-02-25T16:16:58.843Z,98705.97
2023-02-25T16:19:28.902Z,98710.75
2023-02-25T16:22:03.225Z,98711.00
2023-02-25T16:24:30.790Z,98703.44
2023-02-25T16:27:18.151Z,98715.44
2023-02-25T16:30:06.210Z,98710.31
2023-02-25T16:32:43.087Z,98707.88
2023-02-25T16:35:21.416Z,98717.91
2023-02-25T16:38:27.070Z,98715.25
2023-02-25T16:40:54.267Z,98717.91
2023-02-25T16:43:27.574Z,98709.44
2023-02-25T16:45:58.808Z,98718.91
2023-02-25T16:48:32.055Z,98716.34
2023-02-25T16:51:09.132Z,98718.81
2023-02-25T16:53:41.384Z,98728.91
2023-02-25T16:56:20.097Z,98717.97
2023-02-25T16:58:58.197Z,98716.13
2023-02-25T17:01:28.830Z,98720.44
2023-02-25T17:04:02.471Z,98728.13
2023-02-25T17:06:29.115Z,98733.16
2023-02-25T17:08:55.629Z,98729.63
2023-02-25T17:11:25.133Z,98736.47
2023-02-25T17:13:55.925Z,98736.44
2023-02-25T17:16:43.639Z,98734.91
2023-02-25T17:19:11.677Z,98743.56
2023-02-25T17:21:41.673Z,98750.25
2023-02-25T17:24:13.595Z,98752.00
2023-02-25T17:26:43.033Z,98752.69
2023-02-25T17:29:12.733Z,98755.22
2023-02-25T17:31:45.726Z,98754.38
2023-02-25T17:34:16.461Z,98758.63
2023-02-25T17:36:44.036Z,98756.91
2023-02-25T17:39:16.220Z,98759.50
2023-02-25T17:41:43.949Z,98762.13
2023-02-25T17:44:12.494Z,98763.75
2023-02-25T17:46:44.594Z,98762.88
2023-02-25T17:49:28.878Z,98757.06
2023-02-25T17:51:59.016Z,98756.19
2023-02-25T17:54:27.790Z,98756.19
2023-02-25T17:57:01.799Z,98759.63
2023-02-25T17:59:28.335Z,98761.34
2023-02-25T18:02:01.116Z,98763.94
2023-02-25T18:04:41.312Z,98769.88
2023-02-25T18:07:22.173Z,98768.22
2023-02-25T18:09:49.719Z,98775.09
2023-02-25T18:12:25.810Z,98770.81
2023-02-25T18:14:57.963Z,98773.31
2023-02-25T18:17:28.928Z,98775.03
2023-02-25T18:19:59.026Z,98778.47
2023-02-25T18:22:33.308Z,98769.16
2023-02-25T18:25:03.129Z,98774.28
2023-02-25T18:27:32.372Z,98777.72
2023-02-25T18:30:13.989Z,98776.84
2023-02-25T18:32:40.652Z,98781.97
2023-02-25T18:35:07.849Z,98775.13
2023-02-25T18:37:34.730Z,98774.41
2023-02-25T18:40:01.229Z,98783.72
2023-02-25T18:42:27.854Z,98778.59
2023-02-25T18:44:54.484Z,98775.97
2023-02-25T18:47:20.997Z,98785.31
2023-02-25T18:49:48.671Z,98780.19
2023-02-25T18:52:23.801Z,98783.63
2023-02-25T18:54:50.699Z,98779.34
2023-02-25T18:57:24.183Z,98780.25
2023-02-25T18:59:51.810Z,98781.00
2023-02-25T19:02:36.315Z,98775.88
2023-02-25T19:05:03.946Z,98779.19
2023-02-25T19:07:33.430Z,98789.38
2023-02-25T19:10:00.326Z,98783.56
2023-02-25T19:12:29.731Z,98778.47
2023-02-25T19:15:13.032Z,98770.81
2023-02-25T19:17:39.856Z,98775.91
2023-02-25T19:20:07.032Z,98774.16
2023-02-25T19:22:33.703Z,98778.53
2023-02-25T19:25:00.632Z,98776.88
2023-02-25T19:27:29.366Z,98772.56
2023-02-25T19:29:58.941Z,98783.69
2023-02-25T19:32:26.613Z,98788.13
2023-02-25T19:34:53.331Z,98782.16
2023-02-25T19:37:20.598Z,98782.94
2023-02-25T19:39:47.211Z,98781.41
2023-02-25T19:42:14.026Z,98784.84
2023-02-25T19:44:40.627Z,98792.56
2023-02-25T19:47:08.045Z,98789.19
2023-02-25T19:49:34.546Z,98793.63
2023-02-25T19:52:01.215Z,98791.69
2023-02-25T19:54:27.730Z,98795.13
2023-02-25T19:56:54.255Z,98799.31
2023-02-25T19:59:21.251Z,98790.00
2023-02-25T20:01:47.853Z,98790.94
2023-02-25T20:04:14.482Z,98794.31
2023-02-25T20:06:41.066Z,98797.88
2023-02-25T20:09:09.722Z,98804.63
2023-02-25T20:11:36.730Z,98807.31
2023-02-25T20:14:05.056Z,98815.09
2023-02-25T20:16:32.884Z,98811.50
2023-02-25T20:18:59.543Z,98818.34
2023-02-25T20:21:27.397Z,98819.22
2023-02-25T20:23:54.038Z,98814.97
2023-02-25T20:26:23.104Z,98815.81
2023-02-25T20:28:53.011Z,98816.63
2023-02-25T20:31:20.399Z,98823.53
2023-02-25T20:33:49.970Z,98821.69
2023-02-25T20:36:22.681Z,98814.09
2023-02-25T20:39:14.035Z,98815.78
2023-02-25T20:41:44.856Z,98823.34
2023-02-25T20:44:12.418Z,98812.41
2023-02-25T20:46:40.714Z,98817.44
2023-02-25T20:49:08.230Z,98815.78
2023-02-25T20:51:34.985Z,98816.56
2023-02-25T20:54:03.867Z,98814.00
2023-02-25T20:56:33.406Z,98816.59
2023-02-25T20:59:00.013Z,98820.13
2023-02-25T21:01:26.620Z,98818.41
2023-02-25T21:03:53.460Z,98809.91
2023-02-25T21:06:23.911Z,98815.97
2023-02-25T21:08:51.724Z,98807.53
2023-02-25T21:11:20.125Z,98812.63
2023-02-25T21:13:47.688Z,98807.53
2023-02-25T21:16:17.016Z,98804.94
2023-02-25T21:18:45.172Z,98809.16
2023-02-25T21:21:13.902Z,98801.53
2023-02-25T21:23:42.155Z,98803.25
2023-02-25T21:26:11.048Z,98807.53
2023-02-25T21:28:38.684Z,98815.97
2023-02-25T21:31:09.188Z,98813.38
2023-02-25T21:33:37.565Z,98810.81
2023-02-25T21:36:06.724Z,98813.34
2023-02-25T21:38:33.839Z,98804.88
2023-02-25T21:41:09.699Z,98822.72
2023-02-25T21:43:37.863Z,98824.31
2023-02-25T21:46:07.686Z,98817.53
2023-02-25T21:48:35.816Z,98817.53
2023-02-25T21:51:02.411Z,98812.47
2023-02-25T21:53:29.001Z,98811.59
2023-02-25T21:55:56.830Z,98809.88
2023-02-25T21:58:23.845Z,98813.31
2023-02-25T22:00:50.677Z,98801.34
2023-02-25T22:03:17.775Z,98798.75
2023-02-25T22:05:46.496Z,98797.88
2023-02-25T22:08:14.072Z,98801.31
2023-02-25T22:10:41.032Z,98802.91
2023-02-25T22:13:08.670Z,98802.88
2023-02-25T22:15:35.494Z,98796.97
2023-02-25T22:18:02.194Z,98793.66
2023-02-25T22:20:28.861Z,98797.75
2023-02-25T22:22:58.032Z,98799.38
2023-02-25T22:25:24.890Z,98801.16
2023-02-25T22:27:52.189Z,98795.19
2023-02-25T22:30:19.188Z,98790.06
2023-02-25T22:32:45.767Z,98783.25
2023-02-25T22:35:12.392Z,98782.34
2023-02-25T22:37:39.720Z,98778.84
2023-02-25T22:40:06.857Z,98777.19
2023-02-25T22:42:33.436Z,98776.31
2023-02-25T22:44:59.946Z,98783.88
2023-02-25T22:47:26.512Z,98780.41
2023-02-25T22:49:53.135Z,98776.28
2023-02-25T22:52:19.710Z,98771.97
2023-02-25T22:54:46.517Z,98760.75
2023-02-25T22:57:13.092Z,98754.78
2023-02-25T22:59:39.893Z,98753.22
2023-02-25T23:02:06.481Z,98750.63
2023-02-25T23:04:33.357Z,98750.56
2023-02-25T23:07:01.188Z,98744.75
2023-02-25T23:09:27.975Z,98743.88
2023-02-25T23:11:55.314Z,98743.13
2023-02-25T23:14:21.866Z,98744.56
2023-02-25T23:16:48.507Z,98736.19
2023-02-25T23:19:17.190Z,98731.09
2023-02-25T23:21:44.689Z,98739.66
2023-02-25T23:24:19.615Z,98730.13
2023-02-25T23:26:47.863Z,98734.28
2023-02-25T23:29:14.462Z,98731.69
2023-02-25T23:31:47.175Z,98727.31
2023-02-25T23:34:21.667Z,98730.69
2023-02-25T23:36:49.050Z,98730.03
2023-02-25T23:39:16.106Z,98717.91
2023-02-25T23:41:43.688Z,98712.66
2023-02-25T23:44:13.347Z,98709.94
2023-02-25T23:46:43.457Z,98710.84
2023-02-25T23:49:13.710Z,98711.56
2023-02-25T23:51:45.914Z,98701.59
2023-02-25T23:54:15.627Z,98714.16
2023-02-25T23:56:42.589Z,98708.97
2023-02-25T23:59:10.535Z,98713.09
